sensor_id;sensor_type;location;lat;lon;timestamp;P1;durP1;ratioP1;P2;durP2;ratioP2
17658;SDS011;8948;51.534;8.262;2022-07-23T00:00:53;26.92;;;16.27;;
17658;SDS011;8948;51.534;8.262;2022-07-23T00:05:54;26.05;;;15.48;;
17658;SDS011;8948;51.534;8.262;2022-07-23T00:10:55;30.08;;;15.43;;
17658;SDS011;8948;51.534;8.262;2022-07-23T00:15:55;30.35;;;17.35;;
17658;SDS011;8948;51.534;8.262;2022-07-23T00:20:56;33.10;;;17.60;;
17658;SDS011;8948;51.534;8.262;2022-07-23T00:25:56;32.95;;;17.65;;
17658;SDS011;8948;51.534;8.262;2022-07-23T00:30:57;36.22;;;17.65;;
17658;SDS011;8948;51.534;8.262;2022-07-23T00:35:57;33.20;;;18.20;;
17658;SDS011;8948;51.534;8.262;2022-07-23T00:40:58;33.13;;;19.92;;
17658;SDS011;8948;51.534;8.262;2022-07-23T00:45:59;29.52;;;18.67;;
17658;SDS011;8948;51.534;8.262;2022-07-23T00:51:00;37.72;;;20.60;;
17658;SDS011;8948;51.534;8.262;2022-07-23T00:56:01;36.42;;;20.80;;
17658;SDS011;8948;51.534;8.262;2022-07-23T01:01:02;37.33;;;21.92;;
17658;SDS011;8948;51.534;8.262;2022-07-23T01:06:02;33.22;;;20.05;;
17658;SDS011;8948;51.534;8.262;2022-07-23T01:11:03;38.13;;;20.55;;
17658;SDS011;8948;51.534;8.262;2022-07-23T01:16:04;37.25;;;20.67;;
17658;SDS011;8948;51.534;8.262;2022-07-23T01:21:05;34.95;;;20.23;;
17658;SDS011;8948;51.534;8.262;2022-07-23T01:26:05;38.38;;;21.17;;
17658;SDS011;8948;51.534;8.262;2022-07-23T01:31:06;33.50;;;20.13;;
17658;SDS011;8948;51.534;8.262;2022-07-23T01:36:07;40.20;;;22.27;;
17658;SDS011;8948;51.534;8.262;2022-07-23T01:41:07;36.33;;;21.92;;
17658;SDS011;8948;51.534;8.262;2022-07-23T01:46:08;39.83;;;21.13;;
17658;SDS011;8948;51.534;8.262;2022-07-23T01:51:09;45.40;;;23.40;;
17658;SDS011;8948;51.534;8.262;2022-07-23T01:56:09;38.72;;;22.52;;
17658;SDS011;8948;51.534;8.262;2022-07-23T02:01:10;39.67;;;22.92;;
17658;SDS011;8948;51.534;8.262;2022-07-23T02:06:10;39.85;;;23.38;;
17658;SDS011;8948;51.534;8.262;2022-07-23T02:11:11;35.38;;;20.92;;
17658;SDS011;8948;51.534;8.262;2022-07-23T02:16:11;40.30;;;21.30;;
17658;SDS011;8948;51.534;8.262;2022-07-23T02:21:12;36.30;;;21.60;;
17658;SDS011;8948;51.534;8.262;2022-07-23T02:26:13;39.70;;;21.70;;
17658;SDS011;8948;51.534;8.262;2022-07-23T02:31:14;32.42;;;19.02;;
17658;SDS011;8948;51.534;8.262;2022-07-23T02:36:14;33.05;;;18.55;;
17658;SDS011;8948;51.534;8.262;2022-07-23T02:41:15;33.75;;;19.50;;
17658;SDS011;8948;51.534;8.262;2022-07-23T02:46:15;35.88;;;18.27;;
17658;SDS011;8948;51.534;8.262;2022-07-23T02:51:16;34.67;;;18.48;;
17658;SDS011;8948;51.534;8.262;2022-07-23T02:56:16;33.60;;;18.55;;
17658;SDS011;8948;51.534;8.262;2022-07-23T03:01:17;37.95;;;19.52;;
17658;SDS011;8948;51.534;8.262;2022-07-23T03:06:18;27.45;;;17.95;;
17658;SDS011;8948;51.534;8.262;2022-07-23T03:11:18;41.83;;;22.42;;
17658;SDS011;8948;51.534;8.262;2022-07-23T03:16:19;42.17;;;20.55;;
17658;SDS011;8948;51.534;8.262;2022-07-23T03:21:20;16.83;;;12.73;;
17658;SDS011;8948;51.534;8.262;2022-07-23T03:26:20;17.25;;;11.35;;
17658;SDS011;8948;51.534;8.262;2022-07-23T03:31:25;16.90;;;10.70;;
17658;SDS011;8948;51.534;8.262;2022-07-23T03:36:25;21.10;;;13.13;;
17658;SDS011;8948;51.534;8.262;2022-07-23T03:41:26;14.63;;;10.52;;
17658;SDS011;8948;51.534;8.262;2022-07-23T03:46:27;16.38;;;9.95;;
17658;SDS011;8948;51.534;8.262;2022-07-23T03:51:27;20.75;;;11.63;;
17658;SDS011;8948;51.534;8.262;2022-07-23T03:56:28;19.88;;;11.27;;
17658;SDS011;8948;51.534;8.262;2022-07-23T04:01:28;25.05;;;14.90;;
17658;SDS011;8948;51.534;8.262;2022-07-23T04:06:29;21.73;;;10.55;;
17658;SDS011;8948;51.534;8.262;2022-07-23T04:11:30;148.23;;;14.10;;
17658;SDS011;8948;51.534;8.262;2022-07-23T04:16:31;60.15;;;15.77;;
17658;SDS011;8948;51.534;8.262;2022-07-23T04:21:31;48.13;;;13.88;;
17658;SDS011;8948;51.534;8.262;2022-07-23T04:26:32;83.25;;;16.02;;
17658;SDS011;8948;51.534;8.262;2022-07-23T04:31:32;223.05;;;19.55;;
17658;SDS011;8948;51.534;8.262;2022-07-23T04:36:33;391.92;;;20.98;;
17658;SDS011;8948;51.534;8.262;2022-07-23T04:41:34;134.65;;;15.30;;
17658;SDS011;8948;51.534;8.262;2022-07-23T04:46:34;166.65;;;17.60;;
17658;SDS011;8948;51.534;8.262;2022-07-23T04:51:35;150.73;;;20.20;;
17658;SDS011;8948;51.534;8.262;2022-07-23T04:56:35;185.13;;;19.17;;
17658;SDS011;8948;51.534;8.262;2022-07-23T05:01:36;206.10;;;16.77;;
17658;SDS011;8948;51.534;8.262;2022-07-23T05:06:37;78.00;;;16.20;;
17658;SDS011;8948;51.534;8.262;2022-07-23T05:11:37;160.30;;;16.17;;
17658;SDS011;8948;51.534;8.262;2022-07-23T05:16:38;90.18;;;12.93;;
17658;SDS011;8948;51.534;8.262;2022-07-23T05:21:39;68.43;;;12.88;;
17658;SDS011;8948;51.534;8.262;2022-07-23T05:26:39;67.78;;;15.10;;
17658;SDS011;8948;51.534;8.262;2022-07-23T05:31:40;87.72;;;14.23;;
17658;SDS011;8948;51.534;8.262;2022-07-23T05:36:41;42.63;;;13.85;;
17658;SDS011;8948;51.534;8.262;2022-07-23T05:41:41;154.68;;;17.90;;
17658;SDS011;8948;51.534;8.262;2022-07-23T05:46:42;103.05;;;18.77;;
17658;SDS011;8948;51.534;8.262;2022-07-23T05:51:42;102.28;;;19.15;;
17658;SDS011;8948;51.534;8.262;2022-07-23T05:56:43;67.90;;;19.95;;
17658;SDS011;8948;51.534;8.262;2022-07-23T06:01:44;27.75;;;13.73;;
17658;SDS011;8948;51.534;8.262;2022-07-23T06:06:44;57.08;;;19.95;;
17658;SDS011;8948;51.534;8.262;2022-07-23T06:11:45;56.70;;;19.92;;
17658;SDS011;8948;51.534;8.262;2022-07-23T06:16:46;65.85;;;20.50;;
17658;SDS011;8948;51.534;8.262;2022-07-23T06:21:46;74.57;;;21.25;;
17658;SDS011;8948;51.534;8.262;2022-07-23T06:26:47;39.97;;;18.98;;
17658;SDS011;8948;51.534;8.262;2022-07-23T06:31:47;30.60;;;19.35;;
17658;SDS011;8948;51.534;8.262;2022-07-23T06:36:48;36.47;;;19.98;;
17658;SDS011;8948;51.534;8.262;2022-07-23T06:41:49;31.98;;;20.38;;
17658;SDS011;8948;51.534;8.262;2022-07-23T06:46:50;29.75;;;19.70;;
17658;SDS011;8948;51.534;8.262;2022-07-23T06:51:50;35.40;;;19.92;;
17658;SDS011;8948;51.534;8.262;2022-07-23T06:56:51;21.67;;;14.95;;
17658;SDS011;8948;51.534;8.262;2022-07-23T07:01:52;32.15;;;18.85;;
17658;SDS011;8948;51.534;8.262;2022-07-23T07:06:52;30.77;;;18.80;;
17658;SDS011;8948;51.534;8.262;2022-07-23T07:11:53;24.85;;;17.58;;
17658;SDS011;8948;51.534;8.262;2022-07-23T07:16:53;32.70;;;17.52;;
17658;SDS011;8948;51.534;8.262;2022-07-23T07:21:54;28.52;;;17.02;;
17658;SDS011;8948;51.534;8.262;2022-07-23T07:26:54;27.58;;;17.48;;
17658;SDS011;8948;51.534;8.262;2022-07-23T07:31:55;25.80;;;16.50;;
17658;SDS011;8948;51.534;8.262;2022-07-23T07:36:56;21.33;;;14.80;;
17658;SDS011;8948;51.534;8.262;2022-07-23T07:41:56;23.85;;;15.23;;
17658;SDS011;8948;51.534;8.262;2022-07-23T07:46:57;27.92;;;15.25;;
17658;SDS011;8948;51.534;8.262;2022-07-23T07:51:57;24.85;;;15.93;;
17658;SDS011;8948;51.534;8.262;2022-07-23T07:56:58;28.58;;;16.40;;
17658;SDS011;8948;51.534;8.262;2022-07-23T08:01:59;19.48;;;13.38;;
17658;SDS011;8948;51.534;8.262;2022-07-23T08:06:59;24.83;;;16.05;;
17658;SDS011;8948;51.534;8.262;2022-07-23T08:12:00;28.23;;;16.08;;
17658;SDS011;8948;51.534;8.262;2022-07-23T08:17:00;23.98;;;15.40;;
17658;SDS011;8948;51.534;8.262;2022-07-23T08:22:01;23.17;;;13.05;;
17658;SDS011;8948;51.534;8.262;2022-07-23T08:27:02;24.88;;;13.73;;
17658;SDS011;8948;51.534;8.262;2022-07-23T08:32:03;27.23;;;13.88;;
17658;SDS011;8948;51.534;8.262;2022-07-23T08:37:04;19.95;;;13.35;;
17658;SDS011;8948;51.534;8.262;2022-07-23T08:42:04;17.63;;;11.75;;
17658;SDS011;8948;51.534;8.262;2022-07-23T08:47:06;20.98;;;11.60;;
17658;SDS011;8948;51.534;8.262;2022-07-23T08:52:06;19.25;;;11.48;;
17658;SDS011;8948;51.534;8.262;2022-07-23T08:57:07;16.20;;;10.68;;
17658;SDS011;8948;51.534;8.262;2022-07-23T09:02:08;16.98;;;10.45;;
17658;SDS011;8948;51.534;8.262;2022-07-23T09:07:08;14.38;;;10.05;;
17658;SDS011;8948;51.534;8.262;2022-07-23T09:12:10;14.68;;;10.57;;
17658;SDS011;8948;51.534;8.262;2022-07-23T09:17:14;15.63;;;9.60;;
17658;SDS011;8948;51.534;8.262;2022-07-23T09:22:23;14.48;;;9.65;;
17658;SDS011;8948;51.534;8.262;2022-07-23T09:27:26;14.95;;;9.38;;
17658;SDS011;8948;51.534;8.262;2022-07-23T09:38:09;14.95;;;8.38;;
17658;SDS011;8948;51.534;8.262;2022-07-23T09:43:11;17.33;;;10.00;;
17658;SDS011;8948;51.534;8.262;2022-07-23T09:48:25;15.18;;;8.90;;
17658;SDS011;8948;51.534;8.262;2022-07-23T09:53:26;15.10;;;8.73;;
17658;SDS011;8948;51.534;8.262;2022-07-23T09:58:27;14.30;;;8.73;;
17658;SDS011;8948;51.534;8.262;2022-07-23T10:03:29;16.35;;;9.38;;
17658;SDS011;8948;51.534;8.262;2022-07-23T10:08:30;16.63;;;9.02;;
17658;SDS011;8948;51.534;8.262;2022-07-23T10:13:32;17.25;;;9.38;;
17658;SDS011;8948;51.534;8.262;2022-07-23T10:18:50;12.35;;;7.72;;
17658;SDS011;8948;51.534;8.262;2022-07-23T10:23:57;14.25;;;8.35;;
17658;SDS011;8948;51.534;8.262;2022-07-23T10:34:52;10.25;;;7.00;;
17658;SDS011;8948;51.534;8.262;2022-07-23T10:40:14;11.85;;;7.38;;
17658;SDS011;8948;51.534;8.262;2022-07-23T10:50:26;15.43;;;7.47;;
17658;SDS011;8948;51.534;8.262;2022-07-23T11:00:32;16.52;;;8.98;;
17658;SDS011;8948;51.534;8.262;2022-07-23T11:05:46;15.48;;;7.43;;
17658;SDS011;8948;51.534;8.262;2022-07-23T11:10:51;11.15;;;6.50;;
17658;SDS011;8948;51.534;8.262;2022-07-23T11:16:12;10.18;;;5.85;;
17658;SDS011;8948;51.534;8.262;2022-07-23T11:36:57;11.95;;;5.70;;
17658;SDS011;8948;51.534;8.262;2022-07-23T11:41:58;10.52;;;5.20;;
17658;SDS011;8948;51.534;8.262;2022-07-23T11:47:04;6.45;;;4.72;;
17658;SDS011;8948;51.534;8.262;2022-07-23T11:52:10;8.07;;;5.15;;
17658;SDS011;8948;51.534;8.262;2022-07-23T11:57:13;9.95;;;4.53;;
17658;SDS011;8948;51.534;8.262;2022-07-23T12:02:14;5.20;;;3.83;;
17658;SDS011;8948;51.534;8.262;2022-07-23T12:07:31;6.10;;;4.70;;
17658;SDS011;8948;51.534;8.262;2022-07-23T12:12:41;7.38;;;4.88;;
17658;SDS011;8948;51.534;8.262;2022-07-23T12:17:45;5.72;;;4.15;;
17658;SDS011;8948;51.534;8.262;2022-07-23T12:22:47;7.25;;;4.65;;
17658;SDS011;8948;51.534;8.262;2022-07-23T12:33:15;7.22;;;4.68;;
17658;SDS011;8948;51.534;8.262;2022-07-23T12:38:22;8.18;;;5.05;;
17658;SDS011;8948;51.534;8.262;2022-07-23T12:43:25;12.38;;;4.28;;
17658;SDS011;8948;51.534;8.262;2022-07-23T12:48:29;7.82;;;3.35;;
17658;SDS011;8948;51.534;8.262;2022-07-23T12:53:32;8.50;;;3.92;;
17658;SDS011;8948;51.534;8.262;2022-07-23T12:58:44;8.73;;;3.83;;
17658;SDS011;8948;51.534;8.262;2022-07-23T13:09:08;7.88;;;2.33;;
17658;SDS011;8948;51.534;8.262;2022-07-23T13:14:11;6.45;;;2.67;;
17658;SDS011;8948;51.534;8.262;2022-07-23T13:19:12;5.40;;;2.80;;
17658;SDS011;8948;51.534;8.262;2022-07-23T13:24:13;7.78;;;3.30;;
17658;SDS011;8948;51.534;8.262;2022-07-23T13:29:14;13.18;;;3.03;;
17658;SDS011;8948;51.534;8.262;2022-07-23T13:34:14;3.78;;;2.50;;
17658;SDS011;8948;51.534;8.262;2022-07-23T13:39:15;6.20;;;3.40;;
17658;SDS011;8948;51.534;8.262;2022-07-23T13:44:16;6.20;;;2.97;;
17658;SDS011;8948;51.534;8.262;2022-07-23T13:49:18;4.45;;;2.22;;
17658;SDS011;8948;51.534;8.262;2022-07-23T13:54:19;8.75;;;2.78;;
17658;SDS011;8948;51.534;8.262;2022-07-23T13:59:19;4.20;;;1.80;;
17658;SDS011;8948;51.534;8.262;2022-07-23T14:04:20;3.60;;;1.90;;
17658;SDS011;8948;51.534;8.262;2022-07-23T14:09:22;5.90;;;2.30;;
17658;SDS011;8948;51.534;8.262;2022-07-23T14:14:23;5.57;;;2.22;;
17658;SDS011;8948;51.534;8.262;2022-07-23T14:19:23;4.43;;;2.10;;
17658;SDS011;8948;51.534;8.262;2022-07-23T14:24:24;3.65;;;2.60;;
17658;SDS011;8948;51.534;8.262;2022-07-23T14:29:25;4.68;;;2.05;;
17658;SDS011;8948;51.534;8.262;2022-07-23T14:34:25;3.63;;;1.70;;
17658;SDS011;8948;51.534;8.262;2022-07-23T14:39:26;5.88;;;2.30;;
17658;SDS011;8948;51.534;8.262;2022-07-23T14:44:26;6.20;;;2.05;;
17658;SDS011;8948;51.534;8.262;2022-07-23T14:49:27;3.67;;;1.77;;
17658;SDS011;8948;51.534;8.262;2022-07-23T14:54:28;7.63;;;1.67;;
17658;SDS011;8948;51.534;8.262;2022-07-23T14:59:29;3.67;;;1.90;;
17658;SDS011;8948;51.534;8.262;2022-07-23T15:04:30;2.95;;;1.63;;
17658;SDS011;8948;51.534;8.262;2022-07-23T15:09:31;2.85;;;2.00;;
17658;SDS011;8948;51.534;8.262;2022-07-23T15:14:33;9.60;;;2.10;;
17658;SDS011;8948;51.534;8.262;2022-07-23T15:19:33;3.08;;;1.80;;
17658;SDS011;8948;51.534;8.262;2022-07-23T15:24:34;2.85;;;1.63;;
17658;SDS011;8948;51.534;8.262;2022-07-23T15:29:34;5.90;;;1.58;;
17658;SDS011;8948;51.534;8.262;2022-07-23T15:34:36;5.57;;;1.85;;
17658;SDS011;8948;51.534;8.262;2022-07-23T15:39:37;6.32;;;2.00;;
17658;SDS011;8948;51.534;8.262;2022-07-23T15:44:37;3.47;;;1.65;;
17658;SDS011;8948;51.534;8.262;2022-07-23T15:49:38;3.60;;;1.73;;
17658;SDS011;8948;51.534;8.262;2022-07-23T15:54:39;5.00;;;2.00;;
17658;SDS011;8948;51.534;8.262;2022-07-23T15:59:39;3.50;;;1.80;;
17658;SDS011;8948;51.534;8.262;2022-07-23T16:04:40;4.45;;;1.92;;
17658;SDS011;8948;51.534;8.262;2022-07-23T16:09:41;2.85;;;1.77;;
17658;SDS011;8948;51.534;8.262;2022-07-23T16:14:41;5.50;;;2.20;;
17658;SDS011;8948;51.534;8.262;2022-07-23T16:19:42;7.07;;;4.43;;
17658;SDS011;8948;51.534;8.262;2022-07-23T16:24:43;21.13;;;15.00;;
17658;SDS011;8948;51.534;8.262;2022-07-23T16:29:43;7.25;;;4.50;;
17658;SDS011;8948;51.534;8.262;2022-07-23T16:34:44;5.53;;;2.00;;
17658;SDS011;8948;51.534;8.262;2022-07-23T16:39:45;3.92;;;2.15;;
17658;SDS011;8948;51.534;8.262;2022-07-23T16:44:45;5.45;;;2.78;;
17658;SDS011;8948;51.534;8.262;2022-07-23T16:49:46;3.42;;;2.50;;
17658;SDS011;8948;51.534;8.262;2022-07-23T16:54:47;5.22;;;1.95;;
17658;SDS011;8948;51.534;8.262;2022-07-23T16:59:48;6.80;;;2.40;;
17658;SDS011;8948;51.534;8.262;2022-07-23T17:04:49;14.63;;;2.20;;
17658;SDS011;8948;51.534;8.262;2022-07-23T17:09:50;5.25;;;1.95;;
17658;SDS011;8948;51.534;8.262;2022-07-23T17:14:50;7.70;;;2.00;;
17658;SDS011;8948;51.534;8.262;2022-07-23T17:19:51;2.97;;;1.58;;
17658;SDS011;8948;51.534;8.262;2022-07-23T17:24:52;7.38;;;2.25;;
17658;SDS011;8948;51.534;8.262;2022-07-23T17:29:52;2.55;;;2.03;;
17658;SDS011;8948;51.534;8.262;2022-07-23T17:34:53;6.38;;;2.05;;
17658;SDS011;8948;51.534;8.262;2022-07-23T17:39:53;6.47;;;2.28;;
17658;SDS011;8948;51.534;8.262;2022-07-23T17:44:54;3.92;;;1.92;;
17658;SDS011;8948;51.534;8.262;2022-07-23T17:49:54;4.38;;;1.90;;
17658;SDS011;8948;51.534;8.262;2022-07-23T17:54:55;4.88;;;2.05;;
17658;SDS011;8948;51.534;8.262;2022-07-23T17:59:56;5.50;;;2.03;;
17658;SDS011;8948;51.534;8.262;2022-07-23T18:04:56;60.22;;;5.25;;
17658;SDS011;8948;51.534;8.262;2022-07-23T18:09:57;5.50;;;2.28;;
17658;SDS011;8948;51.534;8.262;2022-07-23T18:14:57;4.97;;;1.90;;
17658;SDS011;8948;51.534;8.262;2022-07-23T18:19:58;7.05;;;1.85;;
17658;SDS011;8948;51.534;8.262;2022-07-23T18:24:58;3.80;;;1.63;;
17658;SDS011;8948;51.534;8.262;2022-07-23T18:29:59;2.63;;;1.88;;
17658;SDS011;8948;51.534;8.262;2022-07-23T18:35:00;4.70;;;1.95;;
17658;SDS011;8948;51.534;8.262;2022-07-23T18:40:01;5.00;;;1.92;;
17658;SDS011;8948;51.534;8.262;2022-07-23T18:45:04;5.43;;;2.13;;
17658;SDS011;8948;51.534;8.262;2022-07-23T18:50:07;7.07;;;2.38;;
17658;SDS011;8948;51.534;8.262;2022-07-23T18:55:11;4.20;;;2.00;;
17658;SDS011;8948;51.534;8.262;2022-07-23T19:00:12;4.20;;;1.83;;
17658;SDS011;8948;51.534;8.262;2022-07-23T19:05:13;4.13;;;2.30;;
17658;SDS011;8948;51.534;8.262;2022-07-23T19:10:13;3.67;;;1.73;;
17658;SDS011;8948;51.534;8.262;2022-07-23T19:15:15;16.00;;;1.98;;
17658;SDS011;8948;51.534;8.262;2022-07-23T19:20:16;4.50;;;2.00;;
17658;SDS011;8948;51.534;8.262;2022-07-23T19:25:16;6.45;;;2.42;;
17658;SDS011;8948;51.534;8.262;2022-07-23T19:30:17;3.03;;;2.00;;
17658;SDS011;8948;51.534;8.262;2022-07-23T19:35:18;4.95;;;1.98;;
17658;SDS011;8948;51.534;8.262;2022-07-23T19:40:19;10.32;;;2.42;;
17658;SDS011;8948;51.534;8.262;2022-07-23T19:45:19;5.95;;;2.75;;
17658;SDS011;8948;51.534;8.262;2022-07-23T19:50:20;10.35;;;2.78;;
17658;SDS011;8948;51.534;8.262;2022-07-23T19:55:22;6.43;;;2.17;;
17658;SDS011;8948;51.534;8.262;2022-07-23T20:00:23;7.95;;;2.28;;
17658;SDS011;8948;51.534;8.262;2022-07-23T20:05:24;4.30;;;2.28;;
17658;SDS011;8948;51.534;8.262;2022-07-23T20:10:25;3.65;;;2.30;;
17658;SDS011;8948;51.534;8.262;2022-07-23T20:15:25;7.75;;;2.55;;
17658;SDS011;8948;51.534;8.262;2022-07-23T20:20:28;2.35;;;1.90;;
17658;SDS011;8948;51.534;8.262;2022-07-23T20:25:29;4.95;;;2.38;;
17658;SDS011;8948;51.534;8.262;2022-07-23T20:30:29;12.13;;;2.35;;
17658;SDS011;8948;51.534;8.262;2022-07-23T20:35:30;6.18;;;2.50;;
17658;SDS011;8948;51.534;8.262;2022-07-23T20:40:30;7.28;;;2.78;;
17658;SDS011;8948;51.534;8.262;2022-07-23T20:45:32;6.53;;;2.85;;
17658;SDS011;8948;51.534;8.262;2022-07-23T20:50:33;3.70;;;2.20;;
17658;SDS011;8948;51.534;8.262;2022-07-23T20:55:34;8.30;;;2.85;;
17658;SDS011;8948;51.534;8.262;2022-07-23T21:00:34;8.07;;;2.55;;
17658;SDS011;8948;51.534;8.262;2022-07-23T21:05:35;6.55;;;2.40;;
17658;SDS011;8948;51.534;8.262;2022-07-23T21:10:35;7.03;;;2.92;;
17658;SDS011;8948;51.534;8.262;2022-07-23T21:15:36;9.13;;;2.60;;
17658;SDS011;8948;51.534;8.262;2022-07-23T21:20:37;8.20;;;2.85;;
17658;SDS011;8948;51.534;8.262;2022-07-23T21:25:56;6.50;;;3.22;;
17658;SDS011;8948;51.534;8.262;2022-07-23T21:30:57;5.50;;;2.63;;
17658;SDS011;8948;51.534;8.262;2022-07-23T21:35:57;7.30;;;3.20;;
17658;SDS011;8948;51.534;8.262;2022-07-23T21:40:58;3.95;;;2.60;;
17658;SDS011;8948;51.534;8.262;2022-07-23T21:45:59;7.28;;;2.70;;
17658;SDS011;8948;51.534;8.262;2022-07-23T21:50:59;5.18;;;3.05;;
17658;SDS011;8948;51.534;8.262;2022-07-23T21:56:01;4.50;;;3.00;;
17658;SDS011;8948;51.534;8.262;2022-07-23T22:01:02;7.18;;;3.00;;
17658;SDS011;8948;51.534;8.262;2022-07-23T22:06:02;7.10;;;3.10;;
17658;SDS011;8948;51.534;8.262;2022-07-23T22:11:03;5.72;;;2.75;;
17658;SDS011;8948;51.534;8.262;2022-07-23T22:16:04;5.45;;;3.03;;
17658;SDS011;8948;51.534;8.262;2022-07-23T22:21:05;7.43;;;3.33;;
17658;SDS011;8948;51.534;8.262;2022-07-23T22:26:05;13.30;;;3.25;;
17658;SDS011;8948;51.534;8.262;2022-07-23T22:31:06;5.53;;;3.33;;
17658;SDS011;8948;51.534;8.262;2022-07-23T22:36:07;7.65;;;3.30;;
17658;SDS011;8948;51.534;8.262;2022-07-23T22:41:08;7.25;;;3.28;;
17658;SDS011;8948;51.534;8.262;2022-07-23T22:46:08;4.47;;;3.17;;
17658;SDS011;8948;51.534;8.262;2022-07-23T22:51:09;6.65;;;3.08;;
17658;SDS011;8948;51.534;8.262;2022-07-23T22:56:10;4.82;;;3.63;;
17658;SDS011;8948;51.534;8.262;2022-07-23T23:01:10;5.20;;;3.55;;
17658;SDS011;8948;51.534;8.262;2022-07-23T23:06:11;7.10;;;3.50;;
17658;SDS011;8948;51.534;8.262;2022-07-23T23:11:11;12.25;;;3.50;;
17658;SDS011;8948;51.534;8.262;2022-07-23T23:16:12;8.25;;;3.47;;
17658;SDS011;8948;51.534;8.262;2022-07-23T23:21:12;5.50;;;3.40;;
17658;SDS011;8948;51.534;8.262;2022-07-23T23:26:13;7.93;;;3.20;;
17658;SDS011;8948;51.534;8.262;2022-07-23T23:31:14;13.57;;;4.13;;
17658;SDS011;8948;51.534;8.262;2022-07-23T23:36:15;5.13;;;3.80;;
17658;SDS011;8948;51.534;8.262;2022-07-23T23:41:15;3.80;;;3.40;;
17658;SDS011;8948;51.534;8.262;2022-07-23T23:46:16;8.90;;;3.63;;
17658;SDS011;8948;51.534;8.262;2022-07-23T23:51:17;7.22;;;3.22;;
17658;SDS011;8948;51.534;8.262;2022-07-23T23:56:18;5.82;;;3.10;;
